createdAt,value
2022-08-10T00:01:51.450Z,15.70
2022-08-10T00:04:21.643Z,15.70
2022-08-10T00:06:50.587Z,15.70
2022-08-10T00:09:18.766Z,15.60
2022-08-10T00:11:47.469Z,15.60
2022-08-10T00:14:15.767Z,15.50
2022-08-10T00:16:45.494Z,15.50
2022-08-10T00:19:17.250Z,15.50
2022-08-10T00:21:46.755Z,15.40
2022-08-10T00:24:15.353Z,15.40
2022-08-10T00:27:52.895Z,15.50
2022-08-10T00:29:32.230Z,15.50
2022-08-10T00:32:01.921Z,15.60
2022-08-10T00:34:30.768Z,15.50
2022-08-10T00:37:00.039Z,15.50
2022-08-10T00:39:28.757Z,15.40
2022-08-10T00:42:02.321Z,15.30
2022-08-10T00:44:36.145Z,15.20
2022-08-10T00:47:06.750Z,15.20
2022-08-10T00:49:35.295Z,15.10
2022-08-10T00:52:04.879Z,15.10
2022-08-10T00:54:36.014Z,15.20
2022-08-10T00:57:17.805Z,15.30
2022-08-10T00:59:59.006Z,15.40
2022-08-10T01:02:30.881Z,15.70
2022-08-10T01:05:02.513Z,15.70
2022-08-10T01:07:50.203Z,15.70
2022-08-10T01:10:29.898Z,15.70
2022-08-10T01:13:05.582Z,15.60
2022-08-10T01:15:42.118Z,15.60
2022-08-10T01:18:17.245Z,15.50
2022-08-10T01:20:59.824Z,15.40
2022-08-10T01:24:00.595Z,15.30
2022-08-10T01:27:06.704Z,15.20
2022-08-10T01:29:51.161Z,15.10
2022-08-10T01:32:32.814Z,15.10
2022-08-10T01:35:11.199Z,15.00
2022-08-10T01:37:52.125Z,14.90
2022-08-10T01:40:25.791Z,14.90
2022-08-10T01:42:59.837Z,14.80
2022-08-10T01:45:44.545Z,14.70
2022-08-10T01:48:31.967Z,14.60
2022-08-10T01:51:07.583Z,14.60
2022-08-10T01:53:41.864Z,14.50
2022-08-10T01:56:13.702Z,14.40
2022-08-10T01:58:43.944Z,14.30
2022-08-10T02:01:18.577Z,14.30
2022-08-10T02:04:03.741Z,14.20
2022-08-10T02:06:38.129Z,14.10
2022-08-10T02:09:08.838Z,14.10
2022-08-10T02:12:06.142Z,14.00
2022-08-10T02:14:33.930Z,13.90
2022-08-10T02:17:09.059Z,13.90
2022-08-10T02:20:03.214Z,13.90
2022-08-10T02:22:36.277Z,13.80
2022-08-10T02:25:41.774Z,13.80
2022-08-10T02:28:05.951Z,13.70
2022-08-10T02:30:35.574Z,13.70
2022-08-10T02:33:05.808Z,13.70
2022-08-10T02:35:55.494Z,13.60
2022-08-10T02:38:59.591Z,13.60
2022-08-10T02:45:00.993Z,13.60
2022-08-10T02:45:19.057Z,13.60
2022-08-10T02:47:16.846Z,13.50
2022-08-10T02:49:57.510Z,13.50
2022-08-10T02:52:36.504Z,13.60
2022-08-10T02:55:17.908Z,13.60
2022-08-10T02:58:17.124Z,13.60
2022-08-10T03:00:45.791Z,13.50
2022-08-10T03:03:19.887Z,13.50
2022-08-10T03:05:56.807Z,13.60
2022-08-10T03:08:29.124Z,13.60
2022-08-10T03:11:00.352Z,13.60
2022-08-10T03:13:30.583Z,13.70
2022-08-10T03:16:01.634Z,13.70
2022-08-10T03:18:31.560Z,13.70
2022-08-10T03:21:03.058Z,13.90
2022-08-10T03:23:32.516Z,14.00
2022-08-10T03:26:02.045Z,14.30
2022-08-10T03:28:33.624Z,14.50
2022-08-10T03:31:03.404Z,14.60
2022-08-10T03:33:34.470Z,14.70
2022-08-10T03:36:40.643Z,14.80
2022-08-10T03:38:53.306Z,14.90
2022-08-10T03:41:27.440Z,15.00
2022-08-10T03:44:00.337Z,15.00
2022-08-10T03:46:30.655Z,15.10
2022-08-10T03:49:03.765Z,15.20
2022-08-10T03:51:34.535Z,15.30
2022-08-10T03:54:07.351Z,15.40
2022-08-10T03:56:38.483Z,15.40
2022-08-10T03:59:08.598Z,15.50
2022-08-10T04:02:45.178Z,15.50
2022-08-10T04:04:26.785Z,15.50
2022-08-10T04:06:58.163Z,15.60
2022-08-10T04:09:54.207Z,15.60
2022-08-10T04:12:19.618Z,15.70
2022-08-10T04:14:50.540Z,15.70
2022-08-10T04:17:56.819Z,15.80
2022-08-10T04:20:14.895Z,15.80
2022-08-10T04:22:45.897Z,15.90
2022-08-10T04:25:16.636Z,15.90
2022-08-10T04:27:45.778Z,16.00
2022-08-10T04:30:14.126Z,16.00
2022-08-10T04:32:44.561Z,16.00
2022-08-10T04:35:14.972Z,16.10
2022-08-10T04:37:47.449Z,16.10
2022-08-10T04:40:29.509Z,16.20
2022-08-10T04:43:10.845Z,16.20
2022-08-10T04:45:49.357Z,16.20
2022-08-10T04:48:42.203Z,16.30
2022-08-10T04:51:11.233Z,16.30
2022-08-10T04:54:05.771Z,16.40
2022-08-10T04:56:33.954Z,16.50
2022-08-10T04:59:02.503Z,16.50
2022-08-10T05:02:09.943Z,16.60
2022-08-10T05:04:35.364Z,16.60
2022-08-10T05:07:11.268Z,16.70
2022-08-10T05:10:05.041Z,16.70
2022-08-10T05:12:36.448Z,16.70
2022-08-10T05:15:07.903Z,16.80
2022-08-10T05:17:36.506Z,16.80
2022-08-10T05:20:06.344Z,16.80
2022-08-10T05:22:40.504Z,16.90
2022-08-10T05:25:13.008Z,17.00
2022-08-10T05:27:42.067Z,17.00
2022-08-10T05:30:14.599Z,17.00
2022-08-10T05:32:57.445Z,17.10
2022-08-10T05:35:28.628Z,17.20
2022-08-10T05:38:13.460Z,17.20
2022-08-10T05:40:46.693Z,17.30
2022-08-10T05:43:18.750Z,17.40
2022-08-10T05:46:17.246Z,17.40
2022-08-10T05:48:56.406Z,17.40
2022-08-10T05:51:26.668Z,17.50
2022-08-10T05:54:02.656Z,17.60
2022-08-10T05:56:55.860Z,17.70
2022-08-10T06:00:33.149Z,17.80
2022-08-10T06:02:41.704Z,17.80
2022-08-10T06:05:12.600Z,17.90
2022-08-10T06:07:43.709Z,17.90
2022-08-10T06:10:28.562Z,17.90
2022-08-10T06:13:26.907Z,18.00
2022-08-10T06:16:05.874Z,18.10
2022-08-10T06:18:34.450Z,18.20
2022-08-10T06:21:03.500Z,18.10
2022-08-10T06:23:33.767Z,18.20
2022-08-10T06:26:09.783Z,18.30
2022-08-10T06:28:58.253Z,18.40
2022-08-10T06:31:48.136Z,18.60
2022-08-10T06:34:21.554Z,18.70
2022-08-10T06:36:50.294Z,18.80
2022-08-10T06:39:35.595Z,18.80
2022-08-10T06:42:18.124Z,18.90
2022-08-10T06:44:54.867Z,18.90
2022-08-10T06:47:28.013Z,19.00
2022-08-10T06:50:01.492Z,19.20
2022-08-10T06:52:33.941Z,19.30
2022-08-10T06:55:05.588Z,19.30
2022-08-10T06:57:39.961Z,19.40
2022-08-10T07:00:11.467Z,19.40
2022-08-10T07:02:48.542Z,19.50
2022-08-10T07:05:21.143Z,19.60
2022-08-10T07:07:52.845Z,19.70
2022-08-10T07:10:25.077Z,19.70
2022-08-10T07:13:11.634Z,19.80
2022-08-10T07:15:59.458Z,20.00
2022-08-10T07:18:30.628Z,20.00
2022-08-10T07:21:02.072Z,20.00
2022-08-10T07:23:58.541Z,19.90
2022-08-10T07:26:22.164Z,20.00
2022-08-10T07:28:52.723Z,20.00
2022-08-10T07:31:54.551Z,20.00
2022-08-10T07:34:12.518Z,20.00
2022-08-10T07:36:52.858Z,20.00
2022-08-10T07:40:01.698Z,20.10
2022-08-10T07:42:14.055Z,20.10
2022-08-10T07:44:45.339Z,20.20
2022-08-10T07:47:18.221Z,20.30
2022-08-10T07:50:12.058Z,20.20
2022-08-10T07:52:41.621Z,20.40
2022-08-10T07:55:14.776Z,20.60
2022-08-10T07:57:45.703Z,20.80
2022-08-10T08:00:15.246Z,21.20
2022-08-10T08:02:49.298Z,21.30
2022-08-10T08:05:59.116Z,21.70
2022-08-10T08:08:11.582Z,21.80
2022-08-10T08:10:40.447Z,22.00
2022-08-10T08:13:09.695Z,22.10
2022-08-10T08:16:18.269Z,22.10
2022-08-10T08:18:30.553Z,22.20
2022-08-10T08:20:59.324Z,22.30
2022-08-10T08:24:04.586Z,22.20
2022-08-10T08:26:20.772Z,22.10
2022-08-10T08:28:50.569Z,22.10
2022-08-10T08:31:20.247Z,21.90
2022-08-10T08:33:50.866Z,22.00
2022-08-10T08:36:21.020Z,22.10
2022-08-10T08:38:50.330Z,22.10
2022-08-10T08:41:42.061Z,22.00
2022-08-10T08:44:21.934Z,22.10
2022-08-10T08:48:02.093Z,22.20
2022-08-10T08:50:17.705Z,22.10
2022-08-10T08:52:54.879Z,22.20
2022-08-10T08:56:05.078Z,22.90
2022-08-10T08:58:38.352Z,23.30
2022-08-10T09:01:20.537Z,23.80
2022-08-10T09:04:19.776Z,23.90
2022-08-10T09:07:56.232Z,24.20
2022-08-10T09:10:10.557Z,24.00
2022-08-10T09:12:51.193Z,23.80
2022-08-10T09:15:40.702Z,23.90
2022-08-10T09:18:19.123Z,23.80
2022-08-10T09:20:50.717Z,23.50
2022-08-10T09:24:04.193Z,23.50
2022-08-10T09:26:22.064Z,23.70
2022-08-10T09:29:03.670Z,24.20
2022-08-10T09:32:54.955Z,24.60
2022-08-10T09:36:22.959Z,25.00
2022-08-10T09:38:02.191Z,25.20
2022-08-10T09:41:00.538Z,25.00
2022-08-10T09:43:41.047Z,25.30
2022-08-10T09:46:21.588Z,25.20
2022-08-10T09:49:01.979Z,24.70
2022-08-10T09:51:48.053Z,24.10
2022-08-10T09:54:31.602Z,23.90
2022-08-10T09:57:44.988Z,23.70
2022-08-10T10:00:10.366Z,23.60
2022-08-10T10:02:52.589Z,23.50
2022-08-10T10:05:34.981Z,23.70
2022-08-10T10:08:12.087Z,23.70
2022-08-10T10:10:47.823Z,23.70
2022-08-10T10:13:49.009Z,23.70
2022-08-10T10:16:35.270Z,23.50
2022-08-10T10:19:15.224Z,23.60
2022-08-10T10:21:54.139Z,23.80
2022-08-10T10:24:34.252Z,24.10
2022-08-10T10:27:20.191Z,24.30
2022-08-10T10:29:59.310Z,24.20
2022-08-10T10:32:39.756Z,24.30
2022-08-10T10:35:17.413Z,24.20
2022-08-10T10:38:10.653Z,24.20
2022-08-10T10:40:45.139Z,24.40
2022-08-10T10:43:33.098Z,24.60
2022-08-10T10:46:12.572Z,25.10
2022-08-10T10:48:58.799Z,25.20
2022-08-10T10:51:30.589Z,25.40
2022-08-10T10:54:06.841Z,25.40
2022-08-10T10:56:43.671Z,25.60
2022-08-10T10:59:56.518Z,25.60
2022-08-10T11:02:27.219Z,26.20
2022-08-10T11:05:09.683Z,26.70
2022-08-10T11:07:45.987Z,26.30
2022-08-10T11:10:32.561Z,26.40
2022-08-10T11:14:25.271Z,26.60
2022-08-10T11:16:21.370Z,26.90
2022-08-10T11:19:04.406Z,27.20
2022-08-10T11:21:44.302Z,27.00
2022-08-10T11:24:48.497Z,26.40
2022-08-10T11:27:33.588Z,26.20
2022-08-10T11:30:06.718Z,26.40
2022-08-10T11:32:44.169Z,26.80
2022-08-10T11:35:23.435Z,27.20
2022-08-10T11:38:32.769Z,27.80
2022-08-10T11:40:55.943Z,28.60
2022-08-10T11:43:27.447Z,27.70
2022-08-10T11:46:08.006Z,26.80
2022-08-10T11:48:53.692Z,26.40
2022-08-10T11:51:32.005Z,26.50
2022-08-10T11:54:09.033Z,27.30
2022-08-10T11:57:01.842Z,27.60
2022-08-10T11:59:58.137Z,27.50
2022-08-10T12:02:32.513Z,27.50
2022-08-10T12:05:08.145Z,27.20
2022-08-10T12:10:06.058Z,26.80
2022-08-10T12:10:31.735Z,26.10
2022-08-10T12:13:08.015Z,26.00
2022-08-10T12:15:43.209Z,26.10
2022-08-10T12:18:18.726Z,26.40
2022-08-10T12:20:52.397Z,26.50
2022-08-10T12:23:29.811Z,26.30
2022-08-10T12:26:14.230Z,26.50
2022-08-10T12:28:51.444Z,27.00
2022-08-10T12:31:26.339Z,27.40
2022-08-10T12:34:06.603Z,27.40
2022-08-10T12:36:41.301Z,27.30
2022-08-10T12:39:17.591Z,27.00
2022-08-10T12:41:52.959Z,27.20
2022-08-10T12:44:34.891Z,27.40
2022-08-10T12:47:18.176Z,27.30
2022-08-10T12:50:29.685Z,27.40
2022-08-10T12:52:51.503Z,27.50
2022-08-10T12:55:22.319Z,27.70
2022-08-10T12:57:53.932Z,27.90
2022-08-10T13:00:27.932Z,28.10
2022-08-10T13:02:58.529Z,28.30
2022-08-10T13:05:28.224Z,28.30
2022-08-10T13:08:27.074Z,28.00
2022-08-10T13:11:04.278Z,28.10
2022-08-10T13:13:36.296Z,27.60
2022-08-10T13:16:05.509Z,27.10
2022-08-10T13:18:36.686Z,27.00
2022-08-10T13:21:20.337Z,27.30
2022-08-10T13:24:03.449Z,27.40
2022-08-10T13:27:25.168Z,27.30
2022-08-10T13:29:33.195Z,27.30
2022-08-10T13:32:09.610Z,27.50
2022-08-10T13:34:45.614Z,27.70
2022-08-10T13:37:17.454Z,27.70
2022-08-10T13:39:59.231Z,27.50
2022-08-10T13:42:34.984Z,27.30
2022-08-10T13:45:09.776Z,27.00
2022-08-10T13:47:48.732Z,26.60
2022-08-10T13:50:33.156Z,26.50
2022-08-10T13:53:14.031Z,26.70
2022-08-10T13:55:55.159Z,26.70
2022-08-10T13:58:29.476Z,26.80
2022-08-10T14:00:59.964Z,27.00
2022-08-10T14:03:29.669Z,27.00
2022-08-10T14:06:00.108Z,27.00
2022-08-10T14:08:31.110Z,27.10
2022-08-10T14:11:10.477Z,27.10
2022-08-10T14:13:45.188Z,27.10
2022-08-10T14:16:15.765Z,27.10
2022-08-10T14:18:46.043Z,27.10
2022-08-10T14:21:15.910Z,26.70
2022-08-10T14:23:52.068Z,26.20
2022-08-10T14:26:25.211Z,25.90
2022-08-10T14:28:58.744Z,25.70
2022-08-10T14:32:00.737Z,25.60
2022-08-10T14:36:16.885Z,25.70
2022-08-10T14:37:33.200Z,25.90
2022-08-10T14:40:09.090Z,26.10
2022-08-10T14:42:39.449Z,26.00
2022-08-10T14:45:20.087Z,26.20
2022-08-10T14:48:03.297Z,26.40
2022-08-10T14:50:33.956Z,26.30
2022-08-10T14:53:09.488Z,26.00
2022-08-10T14:55:58.584Z,25.80
2022-08-10T14:58:30.797Z,25.80
2022-08-10T15:01:01.676Z,25.80
2022-08-10T15:04:01.631Z,26.00
2022-08-10T15:06:30.241Z,26.10
2022-08-10T15:09:12.711Z,26.10
2022-08-10T15:12:15.020Z,26.00
2022-08-10T15:14:43.051Z,25.80
2022-08-10T15:17:15.708Z,25.50
2022-08-10T15:20:02.600Z,25.40
2022-08-10T15:22:38.630Z,25.30
2022-08-10T15:25:19.315Z,25.20
2022-08-10T15:27:57.219Z,25.20
2022-08-10T15:30:31.370Z,25.10
2022-08-10T15:33:59.454Z,25.10
2022-08-10T15:36:32.964Z,25.10
2022-08-10T15:39:04.666Z,25.10
2022-08-10T15:41:58.819Z,25.20
2022-08-10T15:44:38.136Z,25.20
2022-08-10T15:47:10.255Z,25.20
2022-08-10T15:49:46.988Z,25.00
2022-08-10T15:52:39.491Z,24.80
2022-08-10T15:55:41.166Z,24.90
2022-08-10T15:58:09.001Z,24.90
2022-08-10T16:00:49.077Z,24.90
2022-08-10T16:03:37.944Z,24.90
2022-08-10T16:06:12.772Z,24.90
2022-08-10T16:08:56.058Z,24.80
2022-08-10T16:11:37.983Z,24.70
2022-08-10T16:14:17.675Z,24.70
2022-08-10T16:16:51.384Z,24.50
2022-08-10T16:19:23.830Z,24.50
2022-08-10T16:21:59.952Z,24.50
2022-08-10T16:24:33.743Z,24.50
2022-08-10T16:27:06.647Z,24.40
2022-08-10T16:29:56.007Z,24.30
2022-08-10T16:32:26.601Z,24.30
2022-08-10T16:34:56.566Z,24.20
2022-08-10T16:37:58.354Z,24.00
2022-08-10T16:40:23.857Z,23.90
2022-08-10T16:42:54.160Z,24.00
2022-08-10T16:45:30.934Z,23.90
2022-08-10T16:48:00.045Z,23.80
2022-08-10T16:50:32.096Z,23.70
2022-08-10T16:53:03.497Z,23.60
2022-08-10T16:55:48.490Z,23.70
2022-08-10T16:58:25.073Z,23.60
2022-08-10T17:00:54.931Z,23.60
2022-08-10T17:04:06.992Z,23.60
2022-08-10T17:06:23.661Z,23.60
2022-08-10T17:08:56.953Z,23.70
2022-08-10T17:11:31.510Z,23.70
2022-08-10T17:14:01.335Z,23.60
2022-08-10T17:16:35.662Z,23.50
2022-08-10T17:19:08.327Z,23.40
2022-08-10T17:21:51.159Z,23.20
2022-08-10T17:24:25.371Z,23.10
2022-08-10T17:26:57.001Z,23.10
2022-08-10T17:29:57.315Z,23.10
2022-08-10T17:32:25.077Z,23.10
2022-08-10T17:34:58.298Z,23.20
2022-08-10T17:37:31.463Z,23.10
2022-08-10T17:40:05.608Z,23.10
2022-08-10T17:42:36.562Z,23.00
2022-08-10T17:45:07.394Z,22.90
2022-08-10T17:47:36.474Z,22.90
2022-08-10T17:50:05.133Z,22.80
2022-08-10T17:52:34.605Z,22.70
2022-08-10T17:55:06.935Z,22.60
2022-08-10T17:57:39.139Z,22.50
2022-08-10T18:00:14.185Z,22.30
2022-08-10T18:02:46.235Z,22.30
2022-08-10T18:05:15.904Z,22.20
2022-08-10T18:07:49.034Z,22.10
2022-08-10T18:10:21.827Z,22.00
2022-08-10T18:12:53.643Z,21.90
2022-08-10T18:15:27.138Z,21.90
2022-08-10T18:17:59.526Z,21.80
2022-08-10T18:20:34.122Z,21.80
2022-08-10T18:23:03.856Z,21.90
2022-08-10T18:25:37.548Z,21.80
2022-08-10T18:28:11.408Z,21.70
2022-08-10T18:30:46.342Z,21.60
2022-08-10T18:33:16.760Z,21.50
2022-08-10T18:35:46.694Z,21.40
2022-08-10T18:38:17.597Z,21.30
2022-08-10T18:40:54.071Z,21.20
2022-08-10T18:44:07.481Z,21.20
2022-08-10T18:46:22.873Z,21.10
2022-08-10T18:48:59.386Z,21.00
2022-08-10T18:51:35.699Z,20.80
2022-08-10T18:54:39.449Z,20.80
2022-08-10T18:57:28.869Z,20.70
2022-08-10T19:00:11.095Z,20.60
2022-08-10T19:03:23.558Z,20.50
2022-08-10T19:06:00.204Z,20.40
2022-08-10T19:08:49.356Z,20.40
2022-08-10T19:11:25.438Z,20.40
2022-08-10T19:14:03.946Z,20.30
2022-08-10T19:16:39.456Z,20.30
2022-08-10T19:19:23.059Z,20.20
2022-08-10T19:22:01.972Z,20.20
2022-08-10T19:24:42.101Z,20.20
2022-08-10T19:27:16.392Z,20.10
2022-08-10T19:30:09.589Z,20.00
2022-08-10T19:33:03.441Z,20.00
2022-08-10T19:36:02.911Z,19.90
2022-08-10T19:38:37.400Z,19.80
2022-08-10T19:41:31.934Z,19.80
2022-08-10T19:44:08.235Z,19.70
2022-08-10T19:46:43.519Z,19.60
2022-08-10T19:49:24.074Z,19.50
2022-08-10T19:51:57.862Z,19.40
2022-08-10T19:54:37.330Z,19.30
2022-08-10T19:57:13.129Z,19.20
2022-08-10T20:00:16.235Z,19.10
2022-08-10T20:02:48.131Z,19.10
2022-08-10T20:05:26.738Z,19.00
2022-08-10T20:07:59.339Z,19.00
2022-08-10T20:10:37.942Z,19.00
2022-08-10T20:13:15.039Z,18.90
2022-08-10T20:15:47.682Z,18.80
2022-08-10T20:18:24.772Z,18.80
2022-08-10T20:21:00.009Z,18.70
2022-08-10T20:23:34.105Z,18.70
2022-08-10T20:26:06.785Z,18.60
2022-08-10T20:28:42.449Z,18.50
2022-08-10T20:31:17.497Z,18.50
2022-08-10T20:34:00.962Z,18.50
2022-08-10T20:36:33.262Z,18.40
2022-08-10T20:39:13.176Z,18.40
2022-08-10T20:42:03.214Z,18.30
2022-08-10T20:44:44.586Z,18.20
2022-08-10T20:47:19.010Z,18.20
2022-08-10T20:49:58.585Z,18.20
2022-08-10T20:52:29.045Z,18.10
2022-08-10T20:55:01.644Z,18.10
2022-08-10T20:57:55.192Z,18.10
2022-08-10T21:00:31.779Z,18.10
2022-08-10T21:03:32.910Z,18.00
2022-08-10T21:06:36.009Z,17.90
2022-08-10T21:09:22.356Z,17.90
2022-08-10T21:12:08.150Z,17.80
2022-08-10T21:14:48.217Z,17.70
2022-08-10T21:17:41.188Z,17.70
2022-08-10T21:20:30.684Z,17.70
2022-08-10T21:23:05.368Z,17.70
2022-08-10T21:25:45.239Z,17.60
2022-08-10T21:28:49.773Z,17.60
2022-08-10T21:31:39.218Z,17.60
2022-08-10T21:34:19.221Z,17.60
2022-08-10T21:37:01.539Z,17.60
2022-08-10T21:39:48.643Z,17.60
2022-08-10T21:42:47.706Z,17.50
2022-08-10T21:45:54.906Z,17.50
2022-08-10T21:48:57.870Z,17.60
2022-08-10T21:52:01.943Z,17.60
2022-08-10T21:55:00.796Z,17.60
2022-08-10T21:57:58.341Z,17.70
2022-08-10T22:00:44.512Z,17.80
2022-08-10T22:03:39.585Z,17.90
2022-08-10T22:06:27.732Z,17.90
2022-08-10T22:09:19.743Z,17.80
2022-08-10T22:12:31.418Z,17.70
2022-08-10T22:15:23.954Z,17.70
2022-08-10T22:18:32.479Z,17.60
2022-08-10T22:21:27.215Z,17.60
2022-08-10T22:24:31.653Z,17.60
2022-08-10T22:27:47.499Z,17.50
2022-08-10T22:30:37.346Z,17.50
2022-08-10T22:33:44.564Z,17.50
2022-08-10T22:36:50.864Z,17.50
2022-08-10T22:40:12.240Z,17.40
2022-08-10T22:43:09.766Z,17.40
2022-08-10T22:46:03.502Z,17.40
2022-08-10T22:48:51.646Z,17.40
2022-08-10T22:51:23.847Z,17.30
2022-08-10T22:54:30.545Z,17.20
2022-08-10T22:57:18.693Z,17.20
2022-08-10T22:59:49.630Z,17.10
2022-08-10T23:02:33.365Z,17.00
2022-08-10T23:05:09.625Z,16.90
2022-08-10T23:07:47.501Z,16.90
2022-08-10T23:10:19.465Z,16.80
2022-08-10T23:12:52.515Z,16.80
2022-08-10T23:15:44.508Z,16.90
2022-08-10T23:18:36.715Z,16.80
2022-08-10T23:21:06.176Z,16.90
2022-08-10T23:23:40.961Z,17.00
2022-08-10T23:26:11.556Z,17.10
2022-08-10T23:28:58.410Z,17.10
2022-08-10T23:31:59.170Z,17.20
2022-08-10T23:34:25.185Z,17.40
2022-08-10T23:36:55.423Z,17.70
2022-08-10T23:39:32.597Z,17.90
2022-08-10T23:42:07.795Z,18.10
2022-08-10T23:44:43.826Z,18.20
2022-08-10T23:47:15.819Z,18.30
2022-08-10T23:49:46.815Z,18.30
2022-08-10T23:52:18.254Z,18.30
2022-08-10T23:54:50.235Z,18.30
2022-08-10T23:57:21.725Z,18.30
